Time;durP1;ratioP1;P1;durP2;ratioP2;P2;SDS_P1;SDS_P2;PMS_P1;PMS_P2;Temp;Humidity;BMP_temperature;BMP_pressure;BME280_temperature;BME280_humidity;BME280_pressure;Samples;Min_cycle;Max_cycle;Signal;HPM_P1;HPM_P2
2022/06/29 00:00:20;;;;;;;7.30;4.43;;;16.90;99.90;;;;;;5079662;28;20048;-74
2022/06/29 00:02:46;;;;;;;6.03;3.97;;;16.90;99.90;;;;;;5106321;28;20127;-74
2022/06/29 00:05:13;;;;;;;;;;;16.80;99.90;;;;;;5090840;28;20047;-74
2022/06/29 00:07:40;;;;;;;5.67;3.50;;;16.80;99.90;;;;;;5109016;28;19931;-74
2022/06/29 00:10:07;;;;;;;8.43;3.63;;;16.80;99.90;;;;;;5090538;28;20163;-74
2022/06/29 00:12:32;;;;;;;7.78;4.22;;;16.70;99.90;;;;;;5108771;28;20043;-73
2022/06/29 00:15:02;;;;;;;5.53;4.18;;;16.70;99.90;;;;;;5091229;28;20063;-75
2022/06/29 00:17:28;;;;;;;6.95;4.05;;;16.70;99.90;;;;;;5090020;28;20034;-75
2022/06/29 00:19:54;;;;;;;;;;;16.60;99.90;;;;;;5090990;28;20075;-74
2022/06/29 00:22:20;;;;;;;5.88;4.55;;;16.60;99.90;;;;;;5088543;28;19986;-74
2022/06/29 00:24:45;;;;;;;6.47;4.10;;;16.60;99.90;;;;;;5089819;28;20059;-74
2022/06/29 00:27:11;;;;;;;5.72;4.72;;;16.60;99.90;;;;;;5073964;28;20043;-73
2022/06/29 00:29:37;;;;;;;6.25;4.50;;;16.60;99.90;;;;;;5090552;28;20050;-74
2022/06/29 00:32:04;;;;;;;7.57;4.40;;;16.50;99.90;;;;;;5108787;28;20122;-74
2022/06/29 00:34:30;;;;;;;9.68;4.60;;;16.50;99.90;;;;;;5073241;28;20039;-73
2022/06/29 00:36:55;;;;;;;5.93;4.45;;;16.50;99.90;;;;;;5090365;28;20075;-74
2022/06/29 00:39:21;;;;;;;6.95;4.30;;;16.50;99.90;;;;;;5090406;28;20488;-75
2022/06/29 00:41:47;;;;;;;8.05;4.85;;;16.50;99.90;;;;;;5088413;28;20115;-74
2022/06/29 00:44:17;;;;;;;7.97;4.53;;;16.50;99.90;;;;;;5094160;28;20099;-74
2022/06/29 00:46:48;;;;;;;6.60;4.57;;;16.50;99.90;;;;;;5093883;28;20051;-74
2022/06/29 00:49:15;;;;;;;4.93;4.13;;;16.40;99.90;;;;;;5093306;28;20116;-74
2022/06/29 00:51:45;;;;;;;10.10;4.68;;;16.40;99.90;;;;;;5094625;28;20512;-74
2022/06/29 00:54:17;;;;;;;7.60;3.90;;;16.30;99.90;;;;;;5093952;28;20071;-73
2022/06/29 00:56:43;;;;;;;7.80;4.20;;;16.30;99.90;;;;;;5093238;28;20044;-74
2022/06/29 00:59:12;;;;;;;7.68;3.80;;;16.30;99.90;;;;;;5093515;28;20070;-74
2022/06/29 01:01:39;;;;;;;6.35;4.20;;;16.30;99.90;;;;;;5110387;28;20043;-74
2022/06/29 01:04:04;;;;;;;6.95;3.85;;;16.20;99.90;;;;;;5110760;28;20076;-75
2022/06/29 01:06:32;;;;;;;6.47;4.28;;;16.20;99.90;;;;;;5090866;28;20445;-75
2022/06/29 01:08:57;;;;;;;10.93;4.35;;;16.20;99.90;;;;;;5073674;28;20050;-75
2022/06/29 01:11:23;;;;;;;5.43;4.32;;;16.10;99.90;;;;;;5091517;28;20040;-75
2022/06/29 01:13:49;;;;;;;6.10;3.95;;;16.10;99.90;;;;;;5102306;28;20484;-74
2022/06/29 01:16:15;;;;;;;7.00;4.30;;;16.10;99.90;;;;;;5082666;28;20047;-73
2022/06/29 01:18:41;;;;;;;6.18;4.20;;;16.10;99.90;;;;;;5093213;28;20364;-74
2022/06/29 01:21:10;;;;;;;5.53;3.83;;;16.10;99.90;;;;;;5111693;28;20039;-73
2022/06/29 01:23:36;;;;;;;8.02;4.38;;;16.10;99.90;;;;;;5076821;28;20440;-73
2022/06/29 01:26:08;;;;;;;5.13;4.55;;;16.00;99.90;;;;;;5093133;28;20088;-73
2022/06/29 01:28:33;;;;;;;8.77;5.00;;;16.00;99.90;;;;;;5111709;28;20067;-74
2022/06/29 01:31:00;;;;;;;6.75;4.75;;;16.10;99.90;;;;;;5093601;28;20067;-73
2022/06/29 01:33:26;;;;;;;6.45;5.10;;;16.10;99.90;;;;;;5110841;28;20035;-74
2022/06/29 01:35:52;;;;;;;9.23;4.97;;;16.10;99.90;;;;;;5111661;28;20031;-75
2022/06/29 01:38:19;;;;;;;7.53;4.57;;;16.10;99.90;;;;;;5105297;28;20043;-73
2022/06/29 01:40:45;;;;;;;7.18;4.35;;;16.10;99.90;;;;;;5110373;28;20115;-74
2022/06/29 01:43:11;;;;;;;7.88;4.40;;;16.10;99.90;;;;;;5107554;28;20437;-74
2022/06/29 01:45:36;;;;;;;6.75;4.70;;;16.10;99.90;;;;;;5075562;28;20134;-75
2022/06/29 01:48:03;;;;;;;4.90;4.40;;;16.10;99.90;;;;;;5093362;28;20042;-75
2022/06/29 01:50:28;;;;;;;5.82;4.65;;;16.10;99.90;;;;;;5092896;28;20572;-75
2022/06/29 01:52:54;;;;;;;8.15;4.40;;;16.10;99.90;;;;;;5093100;28;20059;-74
2022/06/29 01:55:20;;;;;;;5.60;4.85;;;16.20;99.90;;;;;;5109976;28;20510;-75
2022/06/29 01:57:46;;;;;;;5.57;4.45;;;16.10;99.90;;;;;;5111145;28;20050;-74
2022/06/29 02:00:12;;;;;;;7.75;5.05;;;16.20;99.90;;;;;;5093027;28;20127;-75
2022/06/29 02:02:38;;;;;;;;;;;16.20;99.90;;;;;;5093059;28;20036;-74
2022/06/29 02:05:03;;;;;;;6.68;4.88;;;16.20;99.90;;;;;;5092277;28;19972;-74
2022/06/29 02:07:29;;;;;;;5.93;4.80;;;16.20;99.90;;;;;;5092527;28;20048;-74
2022/06/29 02:09:55;;;;;;;10.88;5.32;;;16.20;99.90;;;;;;5077502;28;20050;-75
2022/06/29 02:12:21;;;;;;;6.63;4.70;;;16.20;99.90;;;;;;5091297;28;20039;-74
2022/06/29 02:14:46;;;;;;;6.07;4.80;;;16.20;99.90;;;;;;5092712;28;20039;-74
2022/06/29 02:17:13;;;;;;;6.90;4.75;;;16.20;99.90;;;;;;5110091;28;20032;-74
2022/06/29 02:19:39;;;;;;;6.60;5.05;;;16.20;99.90;;;;;;5110419;28;20044;-74
2022/06/29 02:22:05;;;;;;;9.63;5.00;;;16.20;99.90;;;;;;5092223;28;20043;-74
2022/06/29 02:24:31;;;;;;;6.10;4.72;;;16.30;99.90;;;;;;5110108;28;20097;-74
2022/06/29 02:26:57;;;;;;;6.30;4.90;;;16.30;99.90;;;;;;5109092;28;20450;-74
2022/06/29 02:29:22;;;;;;;6.40;4.80;;;16.30;99.90;;;;;;5091468;28;20456;-74
2022/06/29 02:34:44;;;;;;;6.65;4.55;;;16.30;99.90;;;;;;5091947;28;20086;-74
2022/06/29 02:37:14;;;;;;;8.88;4.35;;;16.30;99.90;;;;;;5109979;28;20084;-74
2022/06/29 02:39:43;;;;;;;6.22;4.68;;;16.30;99.90;;;;;;5090529;28;20075;-75
2022/06/29 02:42:13;;;;;;;7.72;4.47;;;16.30;99.90;;;;;;5091668;28;20079;-74
2022/06/29 02:44:39;;;;;;;6.28;4.30;;;16.30;99.90;;;;;;5108926;28;20539;-75
2022/06/29 02:47:06;;;;;;;;;;;16.30;99.90;;;;;;5106307;28;20082;-73
2022/06/29 02:49:32;;;;;;;8.48;4.53;;;16.30;99.90;;;;;;5091914;28;19941;-74
2022/06/29 02:51:58;;;;;;;5.57;4.30;;;16.30;99.90;;;;;;5110039;28;20035;-74
2022/06/29 02:54:24;;;;;;;6.25;4.35;;;16.30;99.90;;;;;;5091514;28;20469;-73
2022/06/29 02:56:49;;;;;;;5.70;4.43;;;16.30;99.90;;;;;;5073851;28;20043;-74
2022/06/29 02:59:15;;;;;;;6.72;4.30;;;16.30;99.90;;;;;;5091286;28;20043;-74
2022/06/29 03:01:41;;;;;;;6.25;4.30;;;16.30;99.90;;;;;;5091563;28;20047;-74
2022/06/29 03:04:07;;;;;;;8.38;4.60;;;16.30;99.90;;;;;;5065230;28;20039;-75
2022/06/29 03:06:32;;;;;;;6.35;4.10;;;16.30;99.90;;;;;;5069744;28;20047;-75
2022/06/29 03:08:58;;;;;;;9.07;4.68;;;16.30;99.90;;;;;;5085473;28;20051;-74
2022/06/29 03:11:24;;;;;;;5.45;4.07;;;16.30;99.90;;;;;;5107556;28;20032;-74
2022/06/29 03:13:50;;;;;;;6.38;4.28;;;16.30;99.90;;;;;;5089968;28;20032;-75
2022/06/29 03:16:15;;;;;;;6.03;4.53;;;16.30;99.90;;;;;;5109539;28;20459;-74
2022/06/29 03:18:41;;;;;;;6.88;4.38;;;16.30;99.90;;;;;;5058779;28;20039;-74
2022/06/29 03:21:07;;;;;;;7.07;4.63;;;16.30;99.90;;;;;;5070978;28;20044;-74
2022/06/29 03:23:32;;;;;;;6.57;4.43;;;16.30;99.90;;;;;;5086518;28;20035;-75
2022/06/29 03:25:58;;;;;;;6.05;4.45;;;16.30;99.90;;;;;;5109631;28;20500;-74
2022/06/29 03:28:24;;;;;;;8.63;4.63;;;16.20;99.90;;;;;;5074265;28;20392;-73
2022/06/29 03:30:50;;;;;;;6.57;4.90;;;16.20;99.90;;;;;;5091031;28;20090;-73
2022/06/29 03:33:15;;;;;;;6.80;4.20;;;16.20;99.90;;;;;;5090869;28;20040;-74
2022/06/29 03:35:41;;;;;;;9.48;4.68;;;16.20;99.90;;;;;;5108782;28;20278;-74
2022/06/29 03:38:06;;;;;;;6.05;4.75;;;16.20;99.90;;;;;;5106621;28;20047;-74
2022/06/29 03:40:32;;;;;;;7.00;4.88;;;16.20;99.90;;;;;;5108970;28;20035;-74
2022/06/29 03:42:58;;;;;;;6.75;4.40;;;16.20;99.90;;;;;;5091336;28;20399;-75
2022/06/29 03:45:24;;;;;;;6.63;4.93;;;16.20;99.90;;;;;;5090562;28;20047;-74
2022/06/29 03:47:50;;;;;;;8.73;4.38;;;16.10;99.90;;;;;;5090629;28;20039;-74
2022/06/29 03:50:16;;;;;;;;;;;16.10;99.90;;;;;;5089500;28;20048;-75
2022/06/29 03:52:42;;;;;;;6.05;4.68;;;16.10;99.90;;;;;;5108738;28;20370;-74
2022/06/29 03:55:08;;;;;;;6.00;5.07;;;16.10;99.90;;;;;;5090524;28;20040;-75
2022/06/29 03:57:34;;;;;;;7.35;5.30;;;16.10;99.90;;;;;;5090630;28;20043;-75
2022/06/29 04:00:02;;;;;;;6.50;5.07;;;16.10;99.90;;;;;;5090749;28;20075;-74
2022/06/29 04:02:27;;;;;;;7.05;5.47;;;16.10;99.90;;;;;;5090878;28;20046;-74
2022/06/29 04:04:53;;;;;;;6.68;5.38;;;16.10;99.90;;;;;;5074083;28;20496;-75
2022/06/29 04:07:19;;;;;;;6.40;4.95;;;16.10;99.90;;;;;;5090811;28;20039;-75
2022/06/29 04:09:44;;;;;;;6.30;5.15;;;16.10;99.90;;;;;;5090805;28;20042;-73
2022/06/29 04:12:10;;;;;;;7.88;5.53;;;16.10;99.90;;;;;;5091060;28;20075;-75
2022/06/29 04:14:36;;;;;;;8.27;5.35;;;16.10;99.90;;;;;;5054441;28;20043;-74
2022/06/29 04:17:02;;;;;;;5.95;5.30;;;16.10;99.90;;;;;;5079780;28;20051;-75
2022/06/29 04:19:28;;;;;;;6.70;5.35;;;16.10;99.90;;;;;;5078369;28;20428;-73
2022/06/29 04:21:54;;;;;;;7.13;5.53;;;16.10;99.90;;;;;;5094589;28;20040;-74
2022/06/29 04:24:21;;;;;;;6.10;5.30;;;16.10;99.90;;;;;;5094704;28;20038;-74
2022/06/29 04:26:47;;;;;;;7.68;5.60;;;16.10;99.90;;;;;;5060717;28;20123;-74
2022/06/29 04:29:13;;;;;;;5.80;4.95;;;16.10;99.90;;;;;;5092306;28;20119;-73
2022/06/29 04:31:39;;;;;;;6.97;5.57;;;16.20;99.90;;;;;;5094350;28;20031;-74
2022/06/29 04:34:05;;;;;;;8.50;5.07;;;16.20;99.90;;;;;;5094704;28;20441;-74
2022/06/29 04:36:31;;;;;;;6.05;4.80;;;16.20;99.90;;;;;;5094371;28;20383;-73
2022/06/29 04:38:57;;;;;;;6.72;5.55;;;16.20;99.90;;;;;;5106384;28;20439;-74
2022/06/29 04:41:23;;;;;;;7.13;5.43;;;16.30;99.90;;;;;;5074050;28;20042;-72
2022/06/29 04:43:50;;;;;;;6.00;5.40;;;16.30;99.90;;;;;;5090545;28;20040;-73
2022/06/29 04:46:19;;;;;;;7.57;5.45;;;16.40;99.90;;;;;;5111386;28;20040;-73
2022/06/29 04:48:45;;;;;;;5.30;4.78;;;16.40;99.90;;;;;;5111134;28;20096;-73
2022/06/29 04:51:11;;;;;;;6.88;5.30;;;16.40;99.90;;;;;;5110766;28;20079;-74
2022/06/29 04:53:37;;;;;;;5.75;4.97;;;16.50;99.90;;;;;;5094191;28;20074;-74
2022/06/29 04:56:03;;;;;;;6.70;5.28;;;16.50;99.90;;;;;;5112538;28;20032;-73
2022/06/29 04:58:29;;;;;;;6.30;5.05;;;16.60;99.90;;;;;;5093203;28;20088;-73
2022/06/29 05:00:55;;;;;;;10.27;5.50;;;16.60;99.90;;;;;;5093664;28;20122;-74
2022/06/29 05:03:20;;;;;;;6.97;5.20;;;16.60;99.90;;;;;;5077362;28;20403;-74
2022/06/29 05:05:49;;;;;;;7.97;4.70;;;16.70;99.90;;;;;;5076893;28;20084;-74
2022/06/29 05:08:15;;;;;;;6.90;5.35;;;16.70;99.90;;;;;;5093952;28;20035;-74
2022/06/29 05:10:42;;;;;;;5.82;4.97;;;16.80;99.90;;;;;;5111834;28;20074;-74
2022/06/29 05:13:11;;;;;;;6.88;4.85;;;16.80;99.90;;;;;;5093881;28;20039;-74
2022/06/29 05:15:37;;;;;;;6.53;5.00;;;16.90;99.90;;;;;;5091471;28;20040;-75
2022/06/29 05:18:03;;;;;;;8.05;5.18;;;16.90;99.90;;;;;;5091285;28;20104;-73
2022/06/29 05:20:29;;;;;;;6.25;5.00;;;16.90;99.90;;;;;;5112090;28;20032;-74
2022/06/29 05:22:55;;;;;;;6.00;4.63;;;17.00;99.90;;;;;;5093510;28;20448;-74
2022/06/29 05:25:21;;;;;;;6.30;5.05;;;17.00;99.90;;;;;;5093502;28;20506;-74
2022/06/29 05:27:47;;;;;;;5.53;4.90;;;17.10;99.90;;;;;;5076859;28;20490;-73
2022/06/29 05:30:13;;;;;;;9.25;4.97;;;17.20;99.90;;;;;;5106903;28;20047;-74
2022/06/29 05:32:39;;;;;;;6.05;5.10;;;17.20;99.90;;;;;;5092739;28;20092;-74
2022/06/29 05:35:05;;;;;;;6.60;4.57;;;17.30;99.90;;;;;;5111932;28;20118;-74
2022/06/29 05:37:31;;;;;;;5.22;4.20;;;17.30;99.90;;;;;;5093458;28;20065;-73
2022/06/29 05:39:57;;;;;;;6.85;4.28;;;17.40;99.90;;;;;;5093245;28;20114;-74
2022/06/29 05:42:23;;;;;;;5.45;4.60;;;17.40;99.90;;;;;;5096765;28;20131;-74
2022/06/29 05:44:49;;;;;;;6.63;4.70;;;17.60;99.90;;;;;;5090574;28;20032;-74
2022/06/29 05:47:14;;;;;;;7.57;4.53;;;17.80;99.90;;;;;;5093710;28;20052;-74
2022/06/29 05:49:41;;;;;;;5.75;4.63;;;18.00;99.90;;;;;;5087054;28;20071;-73
2022/06/29 05:52:07;;;;;;;6.13;4.93;;;18.10;99.90;;;;;;5083957;28;20082;-73
2022/06/29 05:54:33;;;;;;;5.10;4.60;;;18.20;99.90;;;;;;5091275;28;20457;-74
2022/06/29 05:56:59;;;;;;;7.22;4.57;;;18.40;99.90;;;;;;5090601;28;20391;-72
2022/06/29 05:59:25;;;;;;;7.40;4.68;;;18.60;99.90;;;;;;5098053;28;20044;-74
2022/06/29 06:01:50;;;;;;;;;;;18.80;99.90;;;;;;5073030;28;20036;-74
2022/06/29 06:04:16;;;;;;;20.67;4.50;;;18.80;99.90;;;;;;5081870;28;19920;-74
2022/06/29 06:06:42;;;;;;;5.50;4.20;;;19.10;99.90;;;;;;5050683;28;20093;-74
2022/06/29 06:09:08;;;;;;;6.80;4.40;;;19.40;99.90;;;;;;5072887;28;20040;-74
2022/06/29 06:11:34;;;;;;;5.00;3.97;;;19.70;99.90;;;;;;5048746;28;20047;-73
2022/06/29 06:14:01;;;;;;;5.97;3.80;;;20.10;99.90;;;;;;5090467;28;20162;-74
2022/06/29 06:16:26;;;;;;;4.85;4.07;;;20.30;99.90;;;;;;5072340;28;20086;-75
2022/06/29 06:18:52;;;;;;;6.18;3.70;;;20.50;99.90;;;;;;5065352;28;20481;-73
2022/06/29 06:21:18;;;;;;;6.05;4.00;;;20.70;99.90;;;;;;5072962;28;20146;-74
2022/06/29 06:23:43;;;;;;;7.80;3.65;;;21.00;99.90;;;;;;5073605;28;20043;-73
2022/06/29 06:26:09;;;;;;;9.50;3.97;;;21.30;99.90;;;;;;5069858;28;20043;-73
2022/06/29 06:28:35;;;;;;;6.32;4.15;;;21.40;99.90;;;;;;5059590;28;20075;-73
2022/06/29 06:31:01;;;;;;;5.90;3.33;;;21.50;99.90;;;;;;5083962;28;20085;-74
2022/06/29 06:33:26;;;;;;;5.65;3.17;;;21.70;99.90;;;;;;5072301;28;20046;-74
2022/06/29 06:35:52;;;;;;;5.40;3.25;;;21.70;99.90;;;;;;5069831;28;20032;-74
2022/06/29 06:38:18;;;;;;;4.25;3.08;;;22.00;99.90;;;;;;5072458;28;20024;-74
2022/06/29 06:43:28;;;;;;;3.53;2.92;;;22.50;99.90;;;;;;5067689;28;20050;-74
2022/06/29 06:45:54;;;;;;;;;;;22.70;99.90;;;;;;5059711;28;20123;-74
2022/06/29 06:48:19;;;;;;;6.03;2.78;;;22.90;99.90;;;;;;5057482;28;20374;-74
2022/06/29 06:50:45;;;;;;;5.20;3.08;;;23.00;99.90;;;;;;5057644;28;20044;-74
2022/06/29 06:53:11;;;;;;;3.10;2.67;;;23.20;99.90;;;;;;5066709;28;20040;-73
2022/06/29 06:55:37;;;;;;;4.75;2.80;;;23.20;99.90;;;;;;5087569;28;20089;-73
2022/06/29 06:58:03;;;;;;;;;;;23.20;99.90;;;;;;5090105;28;20032;-73
2022/06/29 07:00:29;;;;;;;4.32;2.60;;;23.30;99.90;;;;;;5083281;28;19962;-73
2022/06/29 07:02:55;;;;;;;3.97;2.47;;;23.30;99.90;;;;;;5091677;28;20031;-74
2022/06/29 07:05:21;;;;;;;;;;;23.30;99.90;;;;;;5087034;28;20054;-73
2022/06/29 07:07:46;;;;;;;4.72;2.33;;;23.50;99.90;;;;;;5089560;28;19960;-74
2022/06/29 07:10:12;;;;;;;;;;;23.60;99.90;;;;;;5110336;28;20480;-73
2022/06/29 07:12:38;;;;;;;3.20;2.00;;;23.70;99.90;;;;;;5108950;28;20374;-74
2022/06/29 07:15:04;;;;;;;;;;;23.70;99.90;;;;;;5109811;28;20083;-74
2022/06/29 07:17:30;;;;;;;2.25;1.85;;;23.90;99.90;;;;;;5091544;28;19946;-73
2022/06/29 07:19:55;;;;;;;;;;;23.80;99.90;;;;;;5110118;28;20040;-73
2022/06/29 07:22:21;;;;;;;4.53;1.75;;;23.90;99.90;;;;;;5081697;28;20306;-74
2022/06/29 07:24:46;;;;;;;;;;;24.10;99.90;;;;;;5092566;28;20054;-74
2022/06/29 07:27:13;;;;;;;4.15;1.48;;;24.10;99.90;;;;;;5085085;28;19915;-74
2022/06/29 07:29:39;;;;;;;3.28;1.80;;;24.10;99.90;;;;;;5109989;28;20612;-73
2022/06/29 07:32:05;;;;;;;4.35;1.75;;;24.30;99.90;;;;;;5074665;28;20039;-73
2022/06/29 07:34:30;;;;;;;3.88;1.85;;;24.40;99.90;;;;;;5074872;28;20054;-73
2022/06/29 07:36:56;;;;;;;;;;;24.50;99.90;;;;;;5091910;28;20115;-73
2022/06/29 07:39:22;;;;;;;3.38;1.60;;;24.60;99.90;;;;;;5091275;28;19915;-74
2022/06/29 07:41:47;;;;;;;;;;;24.70;99.90;;;;;;5110240;28;20391;-74
2022/06/29 07:44:13;;;;;;;3.38;1.42;;;24.90;99.90;;;;;;5110017;28;20419;-74
2022/06/29 07:46:39;;;;;;;;;;;25.00;99.90;;;;;;5110681;28;20036;-74
2022/06/29 07:49:05;;;;;;;4.20;1.92;;;25.10;99.90;;;;;;5073963;28;20376;-73
2022/06/29 07:51:30;;;;;;;;;;;25.30;99.90;;;;;;5088701;28;20194;-74
2022/06/29 07:53:56;;;;;;;3.95;1.75;;;25.50;99.90;;;;;;5090882;28;19960;-75
2022/06/29 07:56:21;;;;;;;4.60;1.60;;;25.60;99.90;;;;;;5091316;28;20523;-75
2022/06/29 07:58:47;;;;;;;2.97;1.70;;;25.60;99.90;;;;;;5090874;28;20051;-75
2022/06/29 08:01:13;;;;;;;3.88;1.48;;;25.70;99.90;;;;;;5090982;28;20054;-76
2022/06/29 08:03:38;;;;;;;2.00;1.45;;;25.90;99.90;;;;;;5109514;28;20082;-73
2022/06/29 08:06:07;;;;;;;2.40;1.40;;;26.00;99.90;;;;;;5090933;28;20415;-75
2022/06/29 08:08:33;;;;;;;3.83;1.45;;;26.10;99.90;;;;;;5046601;28;20036;-74
2022/06/29 08:10:58;;;;;;;3.83;1.52;;;26.20;99.90;;;;;;5061799;28;20487;-74
2022/06/29 08:13:24;;;;;;;2.72;1.63;;;26.40;99.90;;;;;;5082809;28;20069;-74
2022/06/29 08:15:50;;;;;;;3.55;1.42;;;26.40;99.90;;;;;;5070597;28;20110;-74
2022/06/29 08:18:16;;;;;;;3.55;1.50;;;26.50;99.90;;;;;;5095156;28;20032;-75
2022/06/29 08:20:43;;;;;;;3.65;1.60;;;26.70;99.90;;;;;;5079675;28;20115;-74
2022/06/29 08:23:09;;;;;;;2.30;1.45;;;26.70;99.90;;;;;;5060156;28;20132;-75
2022/06/29 08:25:35;;;;;;;2.00;1.40;;;26.90;99.90;;;;;;5077241;28;20481;-75
2022/06/29 08:28:02;;;;;;;4.45;1.42;;;27.00;99.90;;;;;;5076049;28;20612;-74
2022/06/29 08:30:28;;;;;;;1.90;1.15;;;27.10;99.90;;;;;;5078196;28;20128;-74
2022/06/29 08:32:55;;;;;;;1.95;1.27;;;27.20;99.10;;;;;;5082045;28;20080;-75
2022/06/29 08:35:20;;;;;;;3.88;1.40;;;27.30;99.70;;;;;;5099900;28;20373;-75
2022/06/29 08:37:47;;;;;;;2.60;1.13;;;27.40;99.00;;;;;;5054019;28;20043;-74
2022/06/29 08:40:17;;;;;;;1.70;1.10;;;27.50;98.60;;;;;;5067106;28;20046;-74
2022/06/29 08:42:45;;;;;;;1.73;1.08;;;27.60;98.50;;;;;;5078992;28;20047;-74
2022/06/29 08:45:12;;;;;;;2.13;1.10;;;27.70;97.80;;;;;;5096996;28;20040;-74
2022/06/29 08:47:41;;;;;;;2.03;1.10;;;27.70;97.70;;;;;;5099632;28;20039;-74
2022/06/29 08:50:09;;;;;;;2.20;1.30;;;27.50;96.90;;;;;;5083367;28;20048;-75
2022/06/29 08:52:36;;;;;;;3.28;1.10;;;27.40;96.90;;;;;;5096952;28;20119;-74
2022/06/29 08:55:04;;;;;;;2.65;1.30;;;27.30;97.30;;;;;;5080080;28;20416;-74
2022/06/29 08:57:30;;;;;;;2.03;1.20;;;27.10;97.20;;;;;;5076792;28;20079;-74
2022/06/29 08:59:56;;;;;;;1.90;1.20;;;27.00;97.20;;;;;;5087839;28;20043;-74
2022/06/29 09:02:22;;;;;;;1.75;1.10;;;27.10;97.30;;;;;;5083361;28;20039;-74
2022/06/29 09:04:49;;;;;;;2.22;1.20;;;27.20;97.30;;;;;;5108224;28;20034;-73
2022/06/29 09:07:15;;;;;;;1.85;1.00;;;27.40;97.10;;;;;;5072760;28;20058;-74
2022/06/29 09:10:04;;;;;;;4.55;1.30;;;27.40;97.20;;;;;;5070651;28;20031;-74
2022/06/29 09:12:31;;;;;;;2.25;1.10;;;27.50;96.80;;;;;;5090685;28;20043;-74
2022/06/29 09:14:58;;;;;;;2.42;1.10;;;27.70;97.50;;;;;;5094164;28;20051;-74
2022/06/29 09:17:24;;;;;;;4.20;1.30;;;28.10;96.80;;;;;;5114377;28;20044;-74
2022/06/29 09:19:53;;;;;;;3.50;1.30;;;28.30;96.40;;;;;;5093766;28;20464;-75
2022/06/29 09:22:19;;;;;;;4.65;1.23;;;28.30;96.20;;;;;;5093608;28;20099;-74
2022/06/29 09:24:45;;;;;;;3.78;1.40;;;28.60;96.00;;;;;;5094089;28;20043;-74
2022/06/29 09:27:12;;;;;;;3.10;1.30;;;28.60;95.30;;;;;;5111403;28;20062;-74
2022/06/29 09:29:41;;;;;;;4.05;1.20;;;28.70;95.40;;;;;;5093194;28;20046;-74
2022/06/29 09:32:12;;;;;;;4.07;1.30;;;28.80;95.20;;;;;;5093441;28;20100;-74
2022/06/29 09:34:47;;;;;;;3.17;1.10;;;29.00;95.80;;;;;;5093462;28;20127;-75
2022/06/29 09:37:18;;;;;;;3.10;1.10;;;29.20;95.40;;;;;;5093025;28;20044;-75
2022/06/29 09:39:52;;;;;;;6.13;1.42;;;28.90;95.00;;;;;;5093529;28;20043;-75
2022/06/29 09:42:27;;;;;;;2.60;1.20;;;28.90;94.80;;;;;;5076715;28;20505;-75
2022/06/29 09:44:53;;;;;;;3.17;1.23;;;29.00;95.10;;;;;;5093575;28;20036;-74
2022/06/29 09:47:22;;;;;;;2.75;1.13;;;29.30;95.70;;;;;;5089585;28;20480;-75
2022/06/29 09:50:01;;;;;;;3.35;1.25;;;29.50;95.40;;;;;;5111861;28;20046;-76
2022/06/29 09:52:27;;;;;;;2.83;1.23;;;29.70;94.40;;;;;;5072310;28;20040;-75
2022/06/29 09:54:55;;;;;;;1.52;1.15;;;29.80;95.00;;;;;;5076387;28;20040;-76
2022/06/29 09:57:25;;;;;;;3.15;1.05;;;29.90;94.30;;;;;;5111436;28;20039;-75
2022/06/29 10:02:42;;;;;;;;;;;30.00;94.70;;;;;;5093814;28;20042;-76
2022/06/29 10:05:16;;;;;;;3.03;1.17;;;30.20;93.70;;;;;;5103679;28;19926;-75
2022/06/29 10:07:47;;;;;;;1.88;1.42;;;30.60;93.90;;;;;;5089753;28;20044;-75
2022/06/29 10:10:16;;;;;;;2.05;1.50;;;30.80;93.10;;;;;;5093222;28;20094;-75
2022/06/29 10:15:57;;;;;;;2.38;1.20;;;30.80;92.50;;;;;;5090674;28;20079;-75
2022/06/29 10:18:38;;;;;;;1.50;1.20;;;30.50;92.40;;;;;;5076464;28;20736;-76
2022/06/29 10:21:27;;;;;;;2.30;1.10;;;30.70;92.40;;;;;;5093317;28;20075;-76
2022/06/29 10:23:55;;;;;;;1.83;1.33;;;31.00;93.00;;;;;;5093227;28;20046;-76
2022/06/29 10:26:36;;;;;;;3.42;1.20;;;31.20;92.60;;;;;;5083418;28;20079;-75
2022/06/29 10:29:19;;;;;;;1.63;1.00;;;31.10;91.70;;;;;;5091473;28;20047;-75
2022/06/29 10:31:51;;;;;;;2.00;1.20;;;31.10;92.10;;;;;;5092108;28;20043;-75
2022/06/29 10:34:32;;;;;;;2.72;1.20;;;30.90;91.60;;;;;;5106554;28;20039;-77
2022/06/29 10:37:03;;;;;;;1.75;1.23;;;31.00;91.70;;;;;;5106900;28;20039;-75
2022/06/29 10:39:49;;;;;;;2.97;1.23;;;31.30;91.80;;;;;;5092132;28;20035;-75
2022/06/29 10:45:35;;;;;;;2.30;1.10;;;32.40;91.10;;;;;;5085046;28;20256;-75
2022/06/29 10:48:06;;;;;;;4.07;1.40;;;32.10;90.90;;;;;;5105981;28;20403;-75
2022/06/29 10:50:36;;;;;;;3.95;1.30;;;32.10;91.30;;;;;;5082822;28;20506;-76
2022/06/29 10:53:17;;;;;;;2.03;1.35;;;31.90;91.30;;;;;;5092576;28;20032;-76
2022/06/29 10:55:54;;;;;;;1.45;0.90;;;32.00;91.40;;;;;;5092817;28;20044;-75
2022/06/29 10:58:21;;;;;;;1.95;1.00;;;32.30;91.30;;;;;;5107389;28;20047;-75
2022/06/29 11:00:50;;;;;;;2.90;1.20;;;32.40;90.70;;;;;;5060455;28;20045;-75
2022/06/29 11:03:22;;;;;;;1.55;1.00;;;32.50;90.10;;;;;;5072886;28;20036;-74
2022/06/29 11:15:39;;;;;;;2.95;1.30;;;33.10;90.60;;;;;;5088120;28;20032;-75
2022/06/29 11:16:53;;;;;;;2.28;1.00;;;33.00;90.00;;;;;;5075188;28;20040;-75
2022/06/29 11:19:30;;;;;;;1.75;1.10;;;33.30;91.10;;;;;;5058596;28;20040;-76
2022/06/29 11:22:18;;;;;;;1.88;1.10;;;33.30;90.60;;;;;;5069066;28;20070;-75
2022/06/29 11:24:54;;;;;;;4.72;1.20;;;33.00;89.00;;;;;;5081646;28;20083;-76
2022/06/29 11:27:39;;;;;;;2.33;1.05;;;32.60;89.60;;;;;;5077144;28;20103;-76
2022/06/29 11:30:08;;;;;;;2.17;1.20;;;32.50;90.00;;;;;;5058650;28;20040;-76
2022/06/29 11:32:46;;;;;;;3.33;0.95;;;32.40;88.40;;;;;;5067633;28;20035;-75
2022/06/29 11:35:14;;;;;;;2.58;1.00;;;32.60;88.80;;;;;;5065523;28;20040;-75
2022/06/29 11:38:01;;;;;;;3.42;1.00;;;32.60;88.80;;;;;;5066009;28;20093;-76
2022/06/29 11:40:41;;;;;;;2.42;1.00;;;32.80;86.10;;;;;;5071816;28;20074;-76
2022/06/29 11:43:11;;;;;;;1.30;0.80;;;32.90;86.90;;;;;;5050165;28;20033;-75
2022/06/29 11:45:38;;;;;;;1.48;0.77;;;33.10;84.90;;;;;;5071356;28;20047;-76
2022/06/29 11:48:19;;;;;;;1.70;0.70;;;33.30;84.50;;;;;;5071454;28;20036;-75
2022/06/29 11:51:00;;;;;;;2.53;1.20;;;33.40;85.20;;;;;;5070060;28;20100;-76
2022/06/29 11:53:39;;;;;;;1.85;1.00;;;33.70;84.70;;;;;;5063878;28;20090;-75
2022/06/29 11:56:15;;;;;;;1.58;1.05;;;33.70;86.20;;;;;;5066060;28;20100;-75
2022/06/29 11:58:52;;;;;;;2.15;1.00;;;33.70;86.10;;;;;;5081838;28;20048;-76
2022/06/29 12:01:26;;;;;;;3.95;0.80;;;33.80;85.60;;;;;;5071115;28;20056;-75
2022/06/29 12:03:57;;;;;;;1.13;0.80;;;33.80;85.80;;;;;;5064239;28;20119;-76
2022/06/29 12:06:28;;;;;;;1.75;1.10;;;33.80;84.50;;;;;;5054079;28;20047;-75
2022/06/29 12:08:55;;;;;;;2.72;1.20;;;33.70;84.80;;;;;;5069685;28;20048;-75
2022/06/29 12:11:22;;;;;;;1.98;1.20;;;33.80;85.50;;;;;;5065936;28;20056;-75
2022/06/29 12:13:49;;;;;;;2.33;1.15;;;34.00;86.00;;;;;;5071503;28;20449;-75
2022/06/29 12:16:15;;;;;;;2.63;1.35;;;33.90;86.10;;;;;;5036870;28;20494;-76
2022/06/29 12:18:41;;;;;;;2.70;1.33;;;34.00;84.60;;;;;;5071425;28;20076;-76
2022/06/29 12:21:08;;;;;;;1.67;1.33;;;34.00;85.40;;;;;;5066260;28;20044;-75
2022/06/29 12:23:34;;;;;;;1.80;1.10;;;34.00;85.50;;;;;;5070968;28;20036;-76
2022/06/29 12:26:00;;;;;;;2.75;1.40;;;34.10;85.90;;;;;;5086989;28;20391;-76
2022/06/29 12:28:26;;;;;;;2.67;1.30;;;33.90;84.60;;;;;;5051842;28;20035;-75
2022/06/29 12:30:52;;;;;;;1.90;1.40;;;34.00;85.10;;;;;;5066320;28;20369;-76
2022/06/29 12:33:19;;;;;;;2.05;1.38;;;33.80;85.10;;;;;;5078608;28;20033;-75
2022/06/29 12:35:45;;;;;;;3.28;1.40;;;33.70;84.40;;;;;;5082317;28;20040;-76
2022/06/29 12:38:10;;;;;;;2.30;1.65;;;33.60;85.90;;;;;;5060188;28;20051;-77
2022/06/29 12:40:36;;;;;;;1.67;1.30;;;33.60;86.50;;;;;;5049822;28;20036;-77
2022/06/29 12:43:02;;;;;;;2.00;1.65;;;33.70;86.80;;;;;;5051563;28;20036;-76
2022/06/29 12:45:28;;;;;;;2.95;1.88;;;33.60;85.90;;;;;;5058210;28;20035;-76
2022/06/29 12:47:54;;;;;;;2.40;1.75;;;33.80;85.20;;;;;;5075233;28;20543;-75
2022/06/29 12:50:20;;;;;;;4.13;1.90;;;33.70;84.60;;;;;;5074387;28;20044;-74
2022/06/29 12:52:48;;;;;;;2.50;2.05;;;33.30;85.50;;;;;;5066371;28;20399;-76
2022/06/29 12:55:19;;;;;;;4.53;2.40;;;33.40;86.20;;;;;;5074397;28;20100;-78
2022/06/29 12:57:45;;;;;;;3.20;1.98;;;33.60;86.30;;;;;;5089798;28;20471;-76
2022/06/29 13:00:12;;;;;;;3.22;2.13;;;33.60;86.50;;;;;;5103710;28;20139;-75
2022/06/29 13:02:39;;;;;;;3.85;2.10;;;33.70;85.40;;;;;;5090000;28;20058;-76
2022/06/29 13:05:06;;;;;;;3.10;2.20;;;33.60;85.50;;;;;;5085259;28;20044;-77
2022/06/29 13:07:32;;;;;;;4.22;2.38;;;33.50;86.40;;;;;;5074156;28;20043;-75
2022/06/29 13:09:58;;;;;;;2.63;2.33;;;33.40;85.70;;;;;;5069958;28;20039;-75
2022/06/29 13:12:25;;;;;;;3.33;2.17;;;33.20;85.50;;;;;;5091806;28;20044;-75
2022/06/29 13:14:52;;;;;;;3.97;2.50;;;33.10;86.80;;;;;;5093904;28;20407;-76